^^

Nearby METAR Reports

 

EGAC - Belfast Harbour, United Kingdom
Distance from station: W 8mi, 13km
Updated: 18/10/2019 09:50
Few Clouds
Few Clouds
 Wind from N
Wind: N 3 mph , 6 km/h
Temperature: 8°C
Dew Point: 8°C
Humidity: 100%
Barometer: 992 hPa
Clouds: Few Clouds
Visibility: 6 miles , 10 km
Cloud details: Few Clouds 610 m
Few Clouds 1006 m
2019/10/18 08:50 EGAC 180850Z 01003KT 9999 FEW020CB FEW033 08/08 Q0992
EGAA - Belfast/Aldergro, United Kingdom
Distance from station: W 22mi, 35km
Updated: 18/10/2019 09:50
Mostly cloudy
Mostly cloudy
 Wind from ENE
Wind: ENE 7 mph , 11 km/h
Temperature: 8°C
Wind Chill: 6°C
Dew Point: 8°C
Humidity: 100%
Barometer: 992 hPa
Clouds: Mostly cloudy
Visibility: 6 miles , 10 km
Cloud details: Few Clouds 975 m
Partly cloudy 1189 m
Mostly cloudy 1402 m
2019/10/18 08:50 EGAA 180850Z 07006KT 9999 FEW032 SCT039 BKN046 08/08 Q0992
 
EGNS - Isle Of Man/Rona, United Kingdom
Distance from station: SE 57mi, 91km
Updated: 18/10/2019 09:50
Nearby showers, Few clouds
Nearby showers, Few clouds
 Wind from S
Wind: S 13 mph , 20 km/h
Temperature: 12°C
Dew Point: 9°C
Humidity: 82%
Barometer: 992 hPa
Summary: Nearby Showers
Clouds: Few Clouds
Visibility: 6 miles , 10 km
Cloud details: Few Clouds 427 m
Few Clouds 457 m
2019/10/18 08:50 EGNS 180850Z 17011KT 9999 VCSH FEW014 FEW015CB 12/09 Q0992 NOSIG
EGPK - Prestwick(Civ/Na, United Kingdom
Distance from station: NE 74mi, 119km
Updated: 18/10/2019 09:50
Partly cloudy
Partly cloudy
 Wind from E
Wind: E 2 mph , 4 km/h
Temperature: 9°C
Dew Point: 7°C
Humidity: 87%
Barometer: 994 hPa
Clouds: Partly cloudy
Visibility: 6 miles , 10 km
Cloud details: Partly cloudy 884 m
2019/10/18 08:50 EGPK 180850Z 09002KT 9999 SCT029 09/07 Q0994
 
EIDW - Dublin Airport, Ireland
Distance from station: SSW 87mi, 141km
Updated: 18/10/2019 10:00
Nearby showers, Mostly cloudy
Nearby showers, Mostly cloudy
 Wind from S
Wind: S 5 mph , 7 km/h
Temperature: 11°C
Dew Point: 7°C
Humidity: 77%
Barometer: 991 hPa
Summary: Nearby Showers
Clouds: Mostly cloudy
Visibility: 6 miles , 10 km
Cloud details: Few Clouds 549 m
Partly cloudy 4572 m
Mostly cloudy 6096 m
2019/10/18 09:00 EIDW 180900Z 17004KT 130V230 9999 VCSH FEW018CB SCT150 BKN200 11/07 Q0991 NOSIG
EGPF - Glasgow Airport, United Kingdom
Distance from station: NNE 98mi, 158km
Updated: 18/10/2019 09:50
Mostly cloudy
Mostly cloudy
 Wind from ENE
Wind: ENE 7 mph , 11 km/h
Temperature: 9°C
Wind Chill: 7°C
Dew Point: 8°C
Humidity: 94%
Barometer: 994 hPa
Clouds: Mostly cloudy
Visibility: 6 miles , 10 km
Cloud details: Mostly cloudy 1372 m
2019/10/18 08:50 EGPF 180850Z AUTO 06006KT 020V100 9999 BKN045 09/08 Q0994